Werte bis 5 Uhr SommerzeitDiagramme Frankenhausen: Tagesdaten Monatsdaten WindroseCSV-Datei: Frankenhausen19.csv

Wetterdaten 2019 Station: Frankenhausen
Temperaturen in °C relative Nieder- Global- Wind Wind Wind- Sonnen-
Datum Boden Boden Luft Luft Luft Luft Feuchte schlag strahlung max richtung schein
20 cm 5 cm 20 cm 2 m 2 m max 2 m min % mm W/m2*d m/s m/s ° h

25.06.2019 21,8 21,3 17,5 20,4 21,6 19,3 51 0,0 2 2,2 4,5 --- ---
24.06.2019 21,6 23,9 22,8 23,6 29,3 17,3 56 0,0 8253 2,8 8,9 --- 12,4
23.06.2019 20,5 22,4 20,7 21,1 27,2 12,7 63 0,0 8449 2,7 9,8 --- 12,2
22.06.2019 19,4 20,2 17,9 18,0 24,7 10,5 78 0,0 7251 2,3 8,7 --- 11,4
21.06.2019 20,1 20,7 17,1 17,5 22,7 11,7 82 0,0 6345 1,5 6,8 --- 11,6
20.06.2019 21,3 22,5 18,8 18,8 24,3 15,1 88 13,7 5640 1,7 9,6 --- 8,9
19.06.2019 21,7 24,3 22,4 23,1 30,5 16,7 72 0,7 7571 2,0 13,1 --- 11,4
18.06.2019 20,2 22,5 20,5 21,4 29,3 12,7 75 0,0 6963 1,2 6,4 --- 11,6
17.06.2019 18,9 20,8 18,7 19,0 25,7 11,2 78 0,2 7908 1,7 6,4 --- 12,2
16.06.2019 18,4 18,6 16,1 16,4 21,8 12,1 91 3,4 2720 1,3 5,4 --- 7,6
15.06.2019 19,4 21,5 19,4 19,9 24,4 13,5 79 0,0 7055 2,6 11,5 --- 11,3
14.06.2019 17,8 19,0 19,2 20,1 26,8 11,4 68 0,0 6833 2,6 11,4 --- 10,9
13.06.2019 17,2 17,9 16,6 17,0 22,7 11,3 72 0,0 8135 3,4 11,8 --- 11,8
12.06.2019 17,9 17,9 15,8 16,2 18,8 12,2 95 6,3 2388 1,6 7,7 --- 7,9
11.06.2019 18,6 19,6 17,3 17,6 22,4 14,8 91 7,2 4557 1,6 5,0 --- 7,9
10.06.2019 18,9 20,7 19,0 19,6 25,0 14,6 74 0,0 6026 2,3 8,4 --- 9,7
09.06.2019 17,1 18,3 16,6 16,9 22,8 9,6 65 0,0 7550 1,9 5,8 --- 11,9
08.06.2019 17,1 17,0 14,9 15,2 18,8 12,0 64 0,3 7168 5,6 16,4 --- 11,4
07.06.2019 17,3 18,1 16,3 16,1 23,8 9,4 83 2,2 7821 2,8 15,5 --- 11,0
06.06.2019 18,5 18,2 15,7 16,4 23,4 11,6 84 0,5 1795 2,1 11,2 --- 6,6
05.06.2019 19,8 21,9 22,5 23,6 28,2 16,9 74 0,0 5929 1,5 9,8 --- 11,0
04.06.2019 18,7 20,6 20,5 20,7 28,0 15,3 80 0,2 6617 1,9 7,4 --- 10,1
03.06.2019 18,9 20,4 19,6 20,1 29,2 15,2 79 18,4 4562 1,8 18,0 --- 7,7
02.06.2019 18,5 20,9 21,7 22,3 29,9 14,0 67 0,0 8361 2,7 11,1 --- 12,0
01.06.2019 16,9 19,1 18,8 19,2 27,8 10,2 78 0,0 7548 1,5 5,6 --- 11,7
31.05.2019 15,3 16,9 17,5 18,0 23,3 12,8 84 0,0 4710 1,7 8,1 --- 9,8
30.05.2019 14,3 14,3 14,0 14,2 19,3 7,6 77 0,0 3687 2,9 11,2 --- 10,0
29.05.2019 14,8 15,9 12,3 12,4 19,2 7,0 70 0,1 8119 1,9 6,2 --- 11,9
28.05.2019 14,4 14,8 11,8 11,9 17,6 9,2 93 4,2 3574 1,5 8,9 --- 8,9
27.05.2019 14,8 15,6 14,8 15,4 18,5 10,5 84 2,7 2700 1,8 6,8 --- 5,9
26.05.2019 14,0 14,8 14,6 14,7 20,5 7,2 76 0,0 5510 2,7 8,5 --- 10,6
25.05.2019 14,3 14,5 11,6 12,3 17,3 8,2 85 0,0 4742 2,3 7,0 --- 10,8
24.05.2019 14,5 16,1 15,4 15,7 23,0 8,2 75 0,0 6067 1,6 4,7 --- 10,7
23.05.2019 13,0 14,2 13,1 13,4 21,4 6,0 79 0,0 6065 1,5 5,4 --- 11,3
22.05.2019 12,7 12,9 11,6 12,1 15,8 8,1 92 0,0 2942 4,0 9,9 --- 6,6
21.05.2019 13,6 13,9 13,3 13,7 14,3 12,4 99 20,3 1279 5,3 13,6 --- 2,9
20.05.2019 14,4 15,8 14,5 14,7 19,1 10,6 94 23,6 4620 3,5 11,1 --- 9,3
19.05.2019 13,8 15,8 15,2 16,2 24,3 8,7 75 0,0 6593 1,4 6,4 --- 9,3
18.05.2019 12,0 13,9 14,0 15,0 23,3 4,9 73 0,0 7869 1,3 5,6 --- 11,5
17.05.2019 10,5 10,9 10,2 10,7 15,3 7,6 88 0,0 2802 2,2 7,1 --- 8,7
16.05.2019 10,9 10,6 7,5 8,0 9,3 7,3 82 8,7 1235 2,5 7,5 --- 2,5
15.05.2019 11,0 11,3 8,0 8,3 14,6 -0,2 60 0,0 7421 2,6 12,8 --- 9,9
14.05.2019 11,3 11,3 7,9 8,5 14,3 1,2 62 0,0 6647 3,0 13,4 --- 11,0
13.05.2019 11,5 12,1 7,7 8,3 15,0 0,4 64 0,0 8164 2,8 10,1 --- 11,4
12.05.2019 11,0 11,5 7,8 8,2 13,8 3,7 76 0,1 5932 3,6 10,7 --- 10,8
11.05.2019 11,1 10,9 7,6 8,2 10,5 6,1 99 7,7 1358 2,6 9,2 --- 3,4
10.05.2019 12,0 13,0 10,0 10,5 13,7 6,7 89 3,0 3262 2,7 9,4 --- 9,3
09.05.2019 11,4 12,7 10,9 11,2 14,8 8,0 86 0,2 4592 3,0 11,3 --- 9,7
08.05.2019 10,2 10,2 8,6 9,1 12,6 4,2 83 3,6 2723 3,0 11,4 --- 7,6
07.05.2019 10,4 10,6 7,2 7,5 11,4 3,9 81 1,3 3038 1,4 5,7 --- 8,2
06.05.2019 10,3 10,2 5,6 6,0 10,3 0,1 79 0,0 3171 2,1 8,5 --- 9,1
05.05.2019 10,4 10,2 5,2 5,2 10,8 -1,2 82 1,8 4902 2,2 10,2 --- 10,0
04.05.2019 11,4 11,3 4,9 5,0 9,4 1,4 83 3,5 4449 3,6 14,2 --- 8,2
03.05.2019 12,4 12,8 7,9 8,1 10,7 5,1 73 0,8 3711 3,5 9,8 --- 9,1
02.05.2019 12,6 13,6 10,5 10,8 16,2 6,0 83 0,3 5576 3,3 11,8 --- 9,8
01.05.2019 12,4 13,5 10,9 11,5 17,2 5,8 81 0,0 6530 2,4 8,2 --- 10,2
30.04.2019 11,4 12,5 10,9 11,3 16,8 5,7 80 0,0 7101 3,5 9,3 --- 10,6
29.04.2019 10,4 9,8 6,6 7,2 11,6 1,5 95 0,8 2525 2,9 10,3 --- 5,8
28.04.2019 11,2 11,5 8,2 8,2 12,8 4,2 89 0,8 4410 2,0 8,3 --- 8,5
27.04.2019 11,4 11,5 8,9 9,1 13,9 6,5 95 4,3 2913 3,0 10,8 --- 6,2
26.04.2019 12,6 12,6 10,2 10,7 14,8 8,2 89 5,3 1380 2,5 7,8 --- 4,1
25.04.2019 13,7 15,2 15,0 15,8 23,9 8,5 58 0,0 5993 3,6 11,8 --- 10,7
24.04.2019 13,4 15,6 17,2 18,0 25,6 11,8 56 0,0 6289 2,9 14,9 --- 10,3
23.04.2019 12,1 13,3 13,9 14,7 20,2 8,9 52 0,0 6526 5,2 14,2 --- 9,9
22.04.2019 12,1 13,3 14,3 15,8 21,3 10,9 37 0,0 6849 4,4 14,4 --- 10,5
21.04.2019 11,8 13,0 12,3 14,0 22,4 3,4 53 0,0 6766 1,9 7,7 --- 10,6
20.04.2019 11,3 12,6 13,0 14,7 23,3 4,2 51 0,0 6629 1,7 7,9 --- 10,5
19.04.2019 10,6 11,8 13,5 15,5 22,1 6,7 43 0,0 6703 3,1 12,6 --- 10,5
18.04.2019 10,0 10,9 12,9 14,4 19,8 6,0 45 0,0 6515 3,8 13,0 --- 10,3
17.04.2019 9,4 10,4 12,4 13,5 19,3 7,3 39 0,0 6222 3,2 9,0 --- 10,0
16.04.2019 8,2 8,8 9,9 11,0 17,3 2,7 45 0,0 6336 2,9 8,2 --- 10,2
15.04.2019 7,4 8,0 7,8 8,4 14,4 1,7 66 0,0 6419 2,9 10,6 --- 10,3
14.04.2019 6,2 5,5 2,5 2,8 7,1 -1,8 90 0,1 3745 2,5 9,3 --- 9,1
13.04.2019 6,4 5,6 2,0 1,9 4,2 0,2 89 0,0 2700 2,5 9,3 --- 7,7
12.04.2019 6,9 6,0 2,8 2,9 4,4 1,3 71 0,0 2551 2,9 8,6 --- 7,5
11.04.2019 7,6 6,8 3,6 4,1 8,8 -1,5 60 0,0 5575 3,2 10,7 --- 9,5
10.04.2019 8,9 8,5 5,3 5,9 11,0 0,6 68 0,0 5271 2,5 12,1 --- 9,4
09.04.2019 10,0 10,5 8,9 9,7 14,0 4,6 78 0,0 5480 2,2 8,4 --- 9,4
08.04.2019 9,7 10,5 10,8 12,0 19,4 4,5 72 0,0 4421 1,3 6,7 --- 7,1
07.04.2019 9,3 10,1 10,8 12,2 18,8 4,5 72 0,0 5592 2,4 9,3 --- 9,7
06.04.2019 8,4 9,7 11,1 11,7 18,3 7,1 81 0,0 5368 2,3 9,9 --- 9,2
05.04.2019 7,1 6,9 6,0 6,3 7,7 5,1 100 0,1 667 2,2 6,4 --- 0,2
04.04.2019 7,5 7,1 5,3 5,7 7,2 4,0 98 0,0 863 2,6 6,9 --- 1,7
03.04.2019 8,2 8,6 9,3 10,0 13,1 4,4 81 12,9 2038 2,8 16,7 --- 6,1
02.04.2019 7,1 7,1 8,4 9,6 17,2 0,3 64 0,5 3634 2,4 15,8 --- 8,4
01.04.2019 7,2 6,7 5,6 6,6 12,7 0,6 61 0,0 5751 2,9 9,3 --- 9,6
31.03.2019 8,2 8,1 6,4 7,2 11,1 2,9 82 0,0 3281 2,2 8,1 --- 7,5
30.03.2019 8,5 9,1 9,8 10,9 19,0 2,1 70 0,0 5235 2,5 10,7 --- 8,6
29.03.2019 8,2 9,2 9,9 10,7 18,2 3,5 75 0,0 5358 1,1 5,3 --- 9,4
28.03.2019 7,4 8,1 8,4 8,9 11,5 5,7 83 0,0 2276 1,7 6,3 --- 6,9
27.03.2019 6,2 6,4 6,0 6,4 10,8 0,6 84 0,0 3478 2,1 7,7 --- 8,3
26.03.2019 5,9 5,5 4,8 5,1 6,5 3,5 89 0,3 1534 4,5 9,8 --- 3,5
25.03.2019 6,2 5,6 4,0 4,6 7,2 2,6 85 2,7 2897 5,0 16,7 --- 7,1
24.03.2019 7,3 7,7 7,1 7,7 12,0 3,6 79 0,0 2714 2,3 8,9 --- 7,0
23.03.2019 7,2 7,2 6,7 7,5 11,7 2,6 92 0,0 2196 2,5 8,4 --- 8,5
22.03.2019 7,0 7,8 9,4 10,9 20,3 2,3 77 3,9 4755 1,3 5,8 --- 8,7
21.03.2019 6,2 6,8 7,5 8,5 17,3 2,4 77 4,5 4681 1,8 6,9 --- 8,7
20.03.2019 4,7 4,7 4,9 5,4 13,6 -1,4 77 1,7 4340 2,5 7,4 --- 8,4
19.03.2019 4,6 4,1 2,7 3,6 8,3 -0,6 78 1,0 3347 2,3 7,3 --- 8,4
18.03.2019 5,1 4,4 3,5 4,3 7,8 2,1 79 1,4 2544 4,6 15,9 --- 5,9
17.03.2019 6,2 6,3 6,5 7,3 9,7 3,8 79 1,7 1664 4,9 16,7 --- 5,6
16.03.2019 5,9 6,2 7,5 8,2 11,2 5,1 82 1,4 839 5,0 14,0 --- 1,4
15.03.2019 5,3 5,5 7,0 7,7 12,3 5,9 87 0,9 952 5,7 16,4 --- 2,8
14.03.2019 5,0 4,8 5,1 5,7 7,5 4,7 86 0,9 967 7,1 17,2 --- 1,9
13.03.2019 4,9 4,8 5,1 5,6 8,4 3,6 77 0,8 2745 7,1 18,9 --- 5,3
12.03.2019 4,6 4,3 4,7 5,3 8,5 2,0 72 1,2 2432 5,1 15,6 --- 7,3
11.03.2019 4,8 3,9 2,3 3,0 4,9 0,9 88 2,4 1383 6,3 18,5 --- 4,2
10.03.2019 5,9 5,8 5,7 6,2 11,5 1,3 85 7,0 1550 6,1 29,3 --- 4,2
09.03.2019 5,9 6,1 7,3 8,1 12,8 5,7 77 4,2 2853 7,2 22,8 --- 6,7
08.03.2019 5,8 5,6 6,0 6,9 8,0 5,2 77 1,1 1273 5,9 18,5 --- 3,4
07.03.2019 6,4 7,0 9,4 10,3 12,9 6,5 69 1,6 2645 6,8 19,9 --- 6,2
06.03.2019 5,0 4,9 7,2 7,8 12,5 2,3 78 0,0 2094 4,5 16,0 --- 6,0
05.03.2019 5,4 4,9 4,5 5,4 7,8 3,3 80 0,2 1881 5,0 15,2 --- 5,0
04.03.2019 6,4 6,8 8,1 8,9 11,9 4,8 76 5,0 2230 7,2 23,4 --- 4,8
03.03.2019 5,8 6,3 8,9 9,7 10,9 8,1 84 0,0 805 5,6 13,0 --- 1,4
02.03.2019 5,3 5,3 5,1 5,5 8,6 3,3 91 0,0 997 2,5 9,4 --- 3,4
01.03.2019 5,6 6,1 6,8 7,3 10,0 3,5 97 0,8 912 3,1 11,3 --- 2,4
28.02.2019 4,1 4,2 7,0 8,4 14,6 1,1 72 0,0 2796 2,8 13,2 --- 7,5
27.02.2019 3,8 3,3 4,9 6,4 17,3 -1,1 59 0,0 3497 2,3 6,5 --- 7,7
26.02.2019 3,9 3,7 5,0 6,7 17,2 -0,6 67 0,0 3361 1,4 4,5 --- 7,6
25.02.2019 3,6 3,3 4,6 5,8 17,4 -0,1 66 0,0 3246 1,8 6,4 --- 7,5
24.02.2019 3,6 3,0 3,1 4,2 14,1 -1,6 62 0,0 3214 1,8 5,3 --- 7,4
23.02.2019 4,4 3,8 2,6 3,3 9,1 -1,5 70 0,0 2824 1,9 7,5 --- 7,4
22.02.2019 5,5 6,0 7,2 7,6 9,4 3,8 93 0,0 624 2,9 7,9 --- 0,8
21.02.2019 4,4 4,7 6,4 7,2 11,3 3,4 85 0,0 1520 2,3 7,9 --- 3,6
20.02.2019 4,1 4,3 5,3 6,3 9,7 3,1 78 0,0 1734 2,4 6,5 --- 5,7
19.02.2019 3,6 3,5 5,4 6,5 11,0 1,6 73 0,0 2069 3,0 10,4 --- 4,8
18.02.2019 3,3 3,1 5,8 7,2 14,0 1,3 66 0,0 2848 3,0 8,5 --- 6,8
17.02.2019 3,0 2,7 5,5 6,8 15,3 0,1 68 0,0 2686 2,7 8,0 --- 7,1
16.02.2019 2,9 2,6 5,5 7,0 13,9 2,8 64 0,0 2863 2,7 8,6 --- 7,0
15.02.2019 2,7 2,2 4,0 5,2 14,0 -0,8 73 0,1 2806 2,8 6,7 --- 7,0
14.02.2019 3,0 2,5 3,0 4,1 10,5 0,1 80 0,1 2310 2,1 6,2 --- 6,7
13.02.2019 3,0 3,0 3,6 4,3 9,6 1,9 86 0,4 1408 2,0 6,2 --- 5,3
12.02.2019 2,8 2,5 2,8 3,4 5,4 1,9 85 0,2 1110 4,6 10,5 --- 3,4
11.02.2019 3,2 3,0 2,9 3,5 5,8 2,0 88 5,7 1048 6,2 13,9 --- 2,4
10.02.2019 3,0 3,5 5,6 6,5 9,3 3,3 90 7,1 528 5,6 15,9 --- 0,5
09.02.2019 2,2 2,6 6,3 7,3 9,5 5,4 74 0,0 1652 6,8 22,0 --- 4,5
08.02.2019 0,8 0,3 4,1 5,0 7,2 2,4 89 0,0 698 4,2 13,1 --- 1,3
07.02.2019 0,8 0,2 1,6 2,2 3,8 1,2 85 0,0 771 4,1 12,3 --- 1,5
06.02.2019 0,8 0,1 1,1 1,9 5,6 -0,7 84 0,0 1720 3,9 12,8 --- 6,1
05.02.2019 0,7 0,1 1,5 2,3 4,9 0,2 81 0,0 735 2,1 10,0 --- 1,7
04.02.2019 0,7 0,1 -0,2 0,8 3,7 -2,2 86 0,0 1705 3,1 10,2 --- 5,4
03.02.2019 0,7 0,0 0,3 0,8 2,0 -0,3 94 0,2 713 4,0 10,7 --- 1,9
02.02.2019 0,7 0,0 0,4 0,8 1,8 0,2 99 0,6 419 1,3 5,8 --- 0,4
01.02.2019 0,7 -0,1 0,0 1,0 5,7 -2,0 87 0,2 1334 2,2 8,6 --- 4,6
31.01.2019 0,6 -0,1 -0,5 0,4 3,2 -2,4 81 0,2 1742 2,6 8,4 --- 5,5
30.01.2019 0,6 -0,2 -1,5 -0,7 1,0 -2,9 89 0,8 811 2,9 9,6 --- 2,6
29.01.2019 0,5 -0,2 0,1 0,9 3,6 -1,6 91 1,1 1215 2,6 9,5 --- 2,9
28.01.2019 0,4 -0,2 1,0 1,8 2,7 0,5 95 3,6 351 4,3 11,8 --- ---
27.01.2019 0,3 -0,2 3,4 4,3 6,0 2,5 96 2,5 676 4,1 12,5 --- 1,6
26.01.2019 0,3 -0,3 2,1 2,8 5,8 -0,6 99 13,0 406 3,1 8,3 --- ---
25.01.2019 0,3 -0,7 -3,8 -3,7 -0,6 -5,3 87 1,1 876 2,3 7,5 --- 2,4
24.01.2019 0,3 -1,1 -5,6 -5,4 -4,2 -7,2 88 0,1 622 1,8 6,1 --- 2,1
23.01.2019 0,5 -1,0 -4,6 -4,3 -3,0 -5,4 83 0,0 521 2,4 8,4 --- 0,1
22.01.2019 0,7 -1,1 -6,0 -5,6 -3,3 -7,8 91 0,0 544 3,7 11,0 --- 0,1
21.01.2019 1,2 -0,4 -6,4 -5,6 -1,4 -9,0 88 0,3 1932 1,6 5,7 --- 5,5
20.01.2019 1,7 0,3 -5,6 -4,3 1,1 -8,3 86 0,3 1892 0,8 4,0 --- 5,8
19.01.2019 2,3 1,0 -3,3 -2,4 1,5 -4,9 82 0,2 1379 1,4 4,7 --- 4,6
18.01.2019 3,1 1,7 -0,9 0,0 3,0 -2,4 85 0,4 1573 2,5 10,4 --- 5,2
17.01.2019 3,9 3,3 3,3 3,8 6,7 1,0 86 0,7 785 5,5 15,9 --- 2,2
16.01.2019 4,1 3,8 4,1 4,8 6,1 2,9 85 0,0 336 4,1 11,0 --- ---
15.01.2019 3,4 2,7 3,4 4,0 6,5 1,5 83 0,2 533 4,7 14,0 --- 0,7
14.01.2019 4,2 3,5 2,7 3,3 5,7 0,8 85 2,7 950 6,7 15,8 --- 2,7
13.01.2019 4,3 4,4 5,7 6,4 8,6 4,2 95 12,8 245 5,8 18,0 --- ---
12.01.2019 3,7 3,6 4,4 5,0 6,0 4,5 94 2,9 225 4,7 11,5 --- ---
11.01.2019 2,8 1,9 1,3 1,7 5,6 -0,6 99 3,1 156 2,5 9,5 --- ---
10.01.2019 3,1 1,9 -0,2 0,2 0,9 -0,6 89 0,2 466 3,0 7,7 --- ---
09.01.2019 3,9 2,7 1,1 1,4 3,8 0,0 89 1,7 363 6,7 16,0 --- 0,2
08.01.2019 4,8 4,5 4,5 5,2 6,3 3,3 90 7,3 511 8,7 24,4 --- 0,8
07.01.2019 4,8 4,7 4,4 4,8 5,8 4,1 94 0,4 361 3,7 9,6 --- 0,1
06.01.2019 4,7 5,0 5,6 6,1 6,7 5,1 100 10,8 238 3,9 8,2 --- ---
05.01.2019 3,3 3,4 5,2 5,8 7,0 3,6 99 7,4 216 6,3 15,1 --- ---
04.01.2019 2,3 1,1 0,7 1,4 3,7 -0,9 98 0,5 309 4,2 11,9 --- ---
03.01.2019 2,9 1,4 -1,2 -0,4 1,7 -3,0 92 0,0 358 1,4 5,6 --- 0,2
02.01.2019 4,2 2,8 1,5 2,2 3,7 -0,9 74 1,7 1077 6,3 15,9 --- 3,3
01.01.2019 5,5 5,4 5,5 6,2 8,1 2,2 92 1,4 201 5,7 17,6 --- ---

Mittelwerte (Temperaturen, Strahlung, rel. Feuchte, Wind), Summe (Regen) für 2019
8,5 8,7 8,0 8,6 79 297 3.362 3,2

Landesbetrieb Landwirtschaft Hessen 2009

      Werte bis 5 Uhr SommerzeitCSV-Datei: Frankenhausen19.csvDiagramm: Frankenhausen